Time;durP1;ratioP1;P1;durP2;ratioP2;P2;SDS_P1;SDS_P2;PMS_P1;PMS_P2;Temp;Humidity;BMP_temperature;BMP_pressure;BME280_temperature;BME280_humidity;BME280_pressure;Samples;Min_cycle;Max_cycle;Signal;HPM_P1;HPM_P2
2023/03/15 00:03:51;;;;;;;12.10;3.80;;;;;;;2.18;100.00;99419.27;214689;1289;139122;-86
2023/03/15 00:08:51;;;;;;;7.40;2.30;;;;;;;2.16;100.00;99423.94;214402;1289;139641;-85
2023/03/15 00:13:51;;;;;;;12.50;2.40;;;;;;;2.13;100.00;99439.59;214756;1288;138498;-84
2023/03/15 00:18:53;;;;;;;11.90;2.90;;;;;;;2.10;100.00;99443.95;214452;1289;138919;-85
2023/03/15 00:23:55;;;;;;;10.30;2.90;;;;;;;2.11;100.00;99456.59;214848;1289;138533;-87
2023/03/15 00:28:55;;;;;;;10.40;2.40;;;;;;;2.08;100.00;99464.90;214478;1289;139538;-86
2023/03/15 00:33:56;;;;;;;11.80;2.50;;;;;;;2.07;100.00;99470.38;214941;1289;139061;-88
2023/03/15 00:38:56;;;;;;;8.30;2.00;;;;;;;2.05;100.00;99476.28;214413;1292;139687;-86
2023/03/15 00:43:57;;;;;;;11.70;2.30;;;;;;;2.06;100.00;99485.06;214907;1291;138509;-86
2023/03/15 00:48:57;;;;;;;9.60;2.10;;;;;;;2.02;100.00;99493.09;214256;1288;138562;-85
2023/03/15 00:53:58;;;;;;;14.00;2.00;;;;;;;1.99;100.00;99495.86;214814;1288;138741;-86
2023/03/15 00:58:58;;;;;;;8.70;2.20;;;;;;;1.95;100.00;99500.23;214352;1289;138811;-86
2023/03/15 01:04:00;;;;;;;12.30;2.50;;;;;;;1.89;100.00;99505.95;214814;1289;138144;-85
2023/03/15 01:09:00;;;;;;;9.40;2.50;;;;;;;1.82;100.00;99514.34;214397;1288;139734;-85
2023/03/15 01:14:07;;;;;;;15.50;2.60;;;;;;;1.77;100.00;99529.34;214792;1289;138799;-86
2023/03/15 01:19:08;;;;;;;12.70;1.90;;;;;;;1.72;100.00;99534.17;214442;1293;138983;-86
2023/03/15 01:24:13;;;;;;;8.00;1.90;;;;;;;1.68;100.00;99543.51;214999;1288;138668;-86
2023/03/15 01:29:14;;;;;;;11.20;2.20;;;;;;;1.64;100.00;99547.17;214639;1288;138411;-87
2023/03/15 01:34:14;;;;;;;8.10;2.20;;;;;;;1.57;100.00;99557.93;214973;1288;138386;-86
2023/03/15 01:39:15;;;;;;;12.20;2.20;;;;;;;1.51;100.00;99572.30;214642;1292;138628;-86
2023/03/15 01:44:18;;;;;;;10.30;2.20;;;;;;;1.48;100.00;99582.48;215215;1289;139824;-85
2023/03/15 01:49:24;;;;;;;11.00;1.80;;;;;;;1.42;100.00;99592.28;214512;1289;139098;-87
2023/03/15 01:54:38;;;;;;;;;;;;;;;1.39;100.00;99599.31;215127;1292;138606;-89
2023/03/15 01:59:48;;;;;;;10.00;2.60;;;;;;;1.32;100.00;99615.48;214607;1288;125662;-84
2023/03/15 02:04:56;;;;;;;9.30;2.40;;;;;;;1.27;100.00;99623.38;215033;1290;139141;-86
2023/03/15 02:10:13;;;;;;;11.10;3.10;;;;;;;1.22;100.00;99624.06;214431;1289;138819;-86
2023/03/15 02:15:13;;;;;;;;;;;;;;;1.19;100.00;99643.16;215201;1288;138371;-86
2023/03/15 02:20:29;;;;;;;13.60;2.20;;;;;;;1.13;100.00;99654.41;214796;1292;124878;-87
2023/03/15 02:25:39;;;;;;;7.00;1.60;;;;;;;1.08;100.00;99662.19;214963;1292;138541;-86
2023/03/15 02:30:40;;;;;;;16.00;3.50;;;;;;;1.04;100.00;99670.41;214547;1288;139855;-86
2023/03/15 02:35:40;;;;;;;11.10;2.00;;;;;;;0.99;100.00;99678.19;215149;1288;99253;-85
2023/03/15 02:40:43;;;;;;;8.90;2.20;;;;;;;0.94;100.00;99680.34;214638;1288;138362;-86
2023/03/15 02:45:45;;;;;;;13.10;2.30;;;;;;;0.92;100.00;99688.68;215204;1289;138318;-85
2023/03/15 02:50:45;;;;;;;10.10;2.10;;;;;;;0.88;100.00;99696.98;214491;1290;139828;-85
2023/03/15 02:55:46;;;;;;;9.20;1.70;;;;;;;0.82;100.00;99700.99;215208;1291;138730;-85
2023/03/15 03:00:46;;;;;;;14.60;2.40;;;;;;;0.77;100.00;99709.63;214438;1288;139065;-85
2023/03/15 03:05:47;;;;;;;14.30;1.90;;;;;;;0.72;100.00;99714.31;215140;1288;97945;-85
2023/03/15 03:10:47;;;;;;;15.90;2.70;;;;;;;0.66;100.00;99724.61;214393;1288;138830;-85
2023/03/15 03:15:57;;;;;;;14.00;1.90;;;;;;;0.62;100.00;99724.38;214844;1288;138338;-85
2023/03/15 03:20:58;;;;;;;15.50;2.70;;;;;;;0.58;100.00;99728.63;214989;1288;138572;-85
2023/03/15 03:25:59;;;;;;;7.70;2.60;;;;;;;0.54;100.00;99741.60;214372;1288;139479;-85
2023/03/15 03:31:00;;;;;;;12.20;1.80;;;;;;;0.50;100.00;99753.57;215040;1292;140061;-87
2023/03/15 03:36:03;;;;;;;12.10;2.00;;;;;;;0.47;100.00;99759.88;214445;1293;138756;-86
2023/03/15 03:41:03;;;;;;;8.30;1.70;;;;;;;0.45;100.00;99767.23;215030;1289;112183;-86
2023/03/15 03:46:05;;;;;;;9.80;2.20;;;;;;;0.42;100.00;99777.33;214251;1289;139972;-88
2023/03/15 03:51:05;;;;;;;9.20;2.00;;;;;;;0.39;100.00;99791.95;215126;1291;138461;-86
2023/03/15 03:56:06;;;;;;;11.40;1.80;;;;;;;0.32;100.00;99803.23;214726;1291;139852;-86
2023/03/15 04:01:07;;;;;;;15.80;2.20;;;;;;;0.29;100.00;99811.48;215015;1289;138704;-86
2023/03/15 04:06:07;;;;;;;7.70;1.50;;;;;;;0.27;100.00;99816.58;214692;1289;140045;-86
2023/03/15 04:11:08;;;;;;;10.60;2.20;;;;;;;0.25;100.00;99827.73;215014;1288;256477;-86
2023/03/15 04:16:08;;;;;;;10.30;2.00;;;;;;;0.22;100.00;99837.05;214594;1291;139027;-87
2023/03/15 04:21:09;;;;;;;10.00;2.40;;;;;;;0.20;100.00;99854.42;215166;1289;138578;-87
2023/03/15 04:26:10;;;;;;;8.40;2.00;;;;;;;0.18;100.00;99862.83;214529;1289;138783;-87
2023/03/15 04:31:13;;;;;;;9.70;2.50;;;;;;;0.16;100.00;99865.83;214984;1288;139008;-86
2023/03/15 04:36:17;;;;;;;9.30;2.20;;;;;;;0.12;100.00;99869.63;214413;1289;138503;-85
2023/03/15 04:41:17;;;;;;;8.80;2.00;;;;;;;0.10;100.00;99872.53;215252;1288;98053;-84
2023/03/15 04:46:18;;;;;;;12.10;2.20;;;;;;;0.06;100.00;99872.42;214583;1289;138757;-86
2023/03/15 04:51:18;;;;;;;13.50;2.30;;;;;;;0.02;100.00;99872.89;214930;1291;138343;-86
2023/03/15 04:56:19;;;;;;;12.60;1.90;;;;;;;-0.01;100.00;99879.70;214473;1289;139054;-85
2023/03/15 05:01:24;;;;;;;12.90;2.30;;;;;;;-0.03;100.00;99887.11;214830;1288;138822;-85
2023/03/15 05:06:24;;;;;;;16.40;4.10;;;;;;;-0.07;100.00;99897.30;214466;1294;139592;-86
2023/03/15 05:11:25;;;;;;;10.60;2.00;;;;;;;-0.09;100.00;99907.33;214848;1288;97847;-85
2023/03/15 05:16:25;;;;;;;11.20;2.30;;;;;;;-0.10;100.00;99913.67;214414;1291;138815;-86
2023/03/15 05:21:26;;;;;;;15.60;2.60;;;;;;;-0.11;100.00;99914.36;214780;1289;138805;-85
2023/03/15 05:26:26;;;;;;;9.70;2.10;;;;;;;-0.10;100.00;99920.09;214336;1288;138912;-86
2023/03/15 05:31:27;;;;;;;9.40;3.50;;;;;;;-0.11;100.00;99926.48;214898;1289;139259;-86
2023/03/15 05:36:27;;;;;;;7.60;2.20;;;;;;;-0.11;100.00;99936.02;214472;1288;139629;-86
2023/03/15 05:41:27;;;;;;;16.10;2.40;;;;;;;-0.10;100.00;99947.48;214854;1289;96681;-86
2023/03/15 05:46:28;;;;;;;15.70;2.50;;;;;;;-0.09;100.00;99958.40;214379;1289;139282;-86
2023/03/15 05:51:28;;;;;;;10.70;2.60;;;;;;;-0.10;100.00;99962.91;215299;1289;139281;-85
2023/03/15 05:56:28;;;;;;;11.40;1.90;;;;;;;-0.08;100.00;99967.85;214699;1288;141191;-86
2023/03/15 06:01:29;;;;;;;8.60;1.80;;;;;;;-0.07;100.00;99973.33;215085;1288;138772;-86
2023/03/15 06:06:29;;;;;;;11.80;2.30;;;;;;;-0.05;100.00;99987.10;214890;1289;139978;-85
2023/03/15 06:11:30;;;;;;;15.10;2.40;;;;;;;-0.04;100.00;99997.35;215516;1288;98378;-85
2023/03/15 06:16:30;;;;;;;9.20;2.20;;;;;;;-0.04;100.00;100005.14;215041;1289;138800;-86
2023/03/15 06:21:31;;;;;;;13.60;3.10;;;;;;;-0.02;100.00;100010.27;215340;1288;139544;-84
2023/03/15 06:26:31;;;;;;;8.10;2.70;;;;;;;-0.01;100.00;100018.84;214721;1289;139259;-85
2023/03/15 06:31:31;;;;;;;8.50;1.80;;;;;;;0.01;100.00;100026.63;215344;1289;139041;-83
2023/03/15 06:36:32;;;;;;;10.80;2.30;;;;;;;0.02;100.00;100034.87;214811;1291;139872;-84
2023/03/15 06:41:32;;;;;;;17.20;3.60;;;;;;;0.04;100.00;100043.15;215354;1291;97933;-83
2023/03/15 06:46:33;;;;;;;14.80;3.40;;;;;;;0.07;100.00;100051.87;214748;1289;138622;-83
2023/03/15 06:51:33;;;;;;;11.80;3.10;;;;;;;0.11;100.00;100064.36;215701;1289;139290;-84
2023/03/15 06:56:36;;;;;;;10.40;2.40;;;;;;;0.17;100.00;100078.10;214813;1289;139137;-83
2023/03/15 07:01:36;;;;;;;17.60;3.20;;;;;;;0.25;100.00;100093.84;215437;1291;138734;-84
2023/03/15 07:06:37;;;;;;;12.00;2.60;;;;;;;0.34;100.00;100104.83;214682;1289;138730;-82
2023/03/15 07:11:37;;;;;;;13.00;3.60;;;;;;;0.45;100.00;100107.08;215320;1289;98021;-83
2023/03/15 07:16:38;;;;;;;19.30;3.80;;;;;;;0.56;100.00;100113.55;214688;1291;139446;-83
2023/03/15 07:21:38;;;;;;;14.80;3.20;;;;;;;0.70;100.00;100119.27;215164;1291;138794;-85
2023/03/15 07:26:38;;;;;;;17.20;2.90;;;;;;;0.88;100.00;100121.25;214443;1288;139650;-86
2023/03/15 07:31:39;;;;;;;13.00;2.90;;;;;;;1.07;100.00;100132.37;214918;1289;139161;-85
2023/03/15 07:36:40;;;;;;;11.10;2.70;;;;;;;1.25;100.00;100132.09;214544;1289;139308;-86
2023/03/15 07:41:40;;;;;;;16.10;3.50;;;;;;;1.44;100.00;100134.10;215013;1290;97893;-85
2023/03/15 07:46:40;;;;;;;13.90;3.50;;;;;;;1.62;100.00;100143.93;214496;1288;139728;-86
2023/03/15 07:51:41;;;;;;;11.60;2.80;;;;;;;1.76;100.00;100142.61;214666;1292;138564;-86
2023/03/15 07:56:41;;;;;;;16.20;3.80;;;;;;;1.92;100.00;100145.28;214551;1291;139165;-85
2023/03/15 08:01:42;;;;;;;9.50;3.00;;;;;;;2.06;100.00;100148.55;214882;1294;138880;-86
2023/03/15 08:06:42;;;;;;;14.00;2.90;;;;;;;2.20;100.00;100154.61;214513;1288;138761;-85
2023/03/15 08:11:43;;;;;;;12.50;3.40;;;;;;;2.37;100.00;100155.94;215332;1289;98459;-87
2023/03/15 08:16:43;;;;;;;11.80;2.60;;;;;;;2.53;100.00;100162.53;214682;1288;139281;-85
2023/03/15 08:21:44;;;;;;;12.80;3.30;;;;;;;2.68;100.00;100170.16;215362;1293;138634;-85
2023/03/15 08:26:44;;;;;;;10.40;2.60;;;;;;;2.86;100.00;100176.35;214698;1291;138810;-85
2023/03/15 08:31:45;;;;;;;12.80;3.40;;;;;;;3.07;100.00;100181.86;215357;1290;138700;-86
2023/03/15 08:36:46;;;;;;;17.30;3.90;;;;;;;3.18;100.00;100193.48;214888;1290;139976;-85
2023/03/15 08:41:49;;;;;;;16.60;3.30;;;;;;;3.31;100.00;100201.10;215435;1289;98424;-84
2023/03/15 08:46:50;;;;;;;15.20;3.30;;;;;;;3.47;100.00;100202.90;215053;1291;139006;-86
2023/03/15 08:51:50;;;;;;;13.90;4.10;;;;;;;3.64;100.00;100202.50;215283;1292;138860;-86
2023/03/15 08:56:51;;;;;;;10.30;2.80;;;;;;;3.93;100.00;100207.39;215212;1288;138872;-86
2023/03/15 09:01:52;;;;;;;13.90;3.30;;;;;;;4.27;99.89;100218.89;215813;1291;138890;-88
2023/03/15 09:06:53;;;;;;;15.30;3.50;;;;;;;4.54;100.00;100224.42;215059;1291;139249;-88
2023/03/15 09:11:55;;;;;;;11.20;3.00;;;;;;;4.90;99.30;100232.33;215522;1292;140077;-88
2023/03/15 09:16:55;;;;;;;17.10;2.90;;;;;;;5.23;99.27;100231.14;215212;1288;140207;-88
2023/03/15 09:21:55;;;;;;;15.90;2.90;;;;;;;5.54;97.43;100238.11;215782;1292;138313;-86
2023/03/15 09:26:56;;;;;;;11.30;3.60;;;;;;;5.81;96.20;100244.09;214929;1291;138922;-88
2023/03/15 09:31:57;;;;;;;12.90;2.80;;;;;;;6.00;94.73;100249.61;215407;1292;138493;-88
2023/03/15 09:36:57;;;;;;;8.30;2.30;;;;;;;6.07;92.44;100252.91;215002;1288;139065;-86
2023/03/15 09:42:00;;;;;;;9.70;2.40;;;;;;;6.13;93.75;100254.95;215226;1289;138405;-87
2023/03/15 09:47:22;;;;;;;13.70;4.20;;;;;;;6.20;91.42;100260.84;215074;1294;138830;-86
2023/03/15 09:52:36;;;;;;;10.90;4.10;;;;;;;6.15;89.80;100264.66;215212;1289;138396;-87
2023/03/15 09:57:45;;;;;;;9.00;2.60;;;;;;;6.08;91.02;100268.02;215057;1288;138901;-87
2023/03/15 10:03:05;;;;;;;12.50;2.50;;;;;;;6.23;89.43;100269.11;215290;1294;138336;-87
2023/03/15 10:08:11;;;;;;;10.50;2.50;;;;;;;6.33;89.43;100266.53;215157;1294;138991;-86
2023/03/15 10:13:21;;;;;;;8.30;1.80;;;;;;;6.59;89.62;100265.48;215862;1292;138674;-88
2023/03/15 10:18:48;;;;;;;14.00;2.90;;;;;;;6.68;87.09;100270.25;214873;1291;138746;-88
2023/03/15 10:23:52;;;;;;;9.30;1.90;;;;;;;6.84;86.83;100279.05;215381;1290;97929;-88
2023/03/15 10:28:53;;;;;;;8.40;2.90;;;;;;;6.89;87.40;100282.13;215010;1292;137947;-88
2023/03/15 10:33:54;;;;;;;7.40;2.10;;;;;;;7.06;88.21;100278.79;215490;1293;138273;-89
2023/03/15 10:38:56;;;;;;;11.50;2.00;;;;;;;7.18;87.78;100279.75;215167;1292;138467;-88
2023/03/15 10:44:00;;;;;;;7.60;1.90;;;;;;;7.14;86.08;100286.70;216058;1294;138489;-88
2023/03/15 10:49:13;;;;;;;7.70;1.80;;;;;;;6.85;84.18;100287.44;215184;1294;139101;-89
2023/03/15 10:54:18;;;;;;;7.40;2.60;;;;;;;6.64;84.37;100288.63;215440;1293;138444;-88
2023/03/15 10:59:23;;;;;;;10.80;1.90;;;;;;;6.60;83.46;100294.63;215088;1289;138812;-87
2023/03/15 11:04:29;;;;;;;10.30;1.80;;;;;;;6.82;83.68;100292.20;215722;1292;138466;-87
2023/03/15 11:09:42;;;;;;;8.50;1.80;;;;;;;7.23;80.09;100288.00;215476;1293;140355;-88
2023/03/15 11:14:47;;;;;;;12.30;2.10;;;;;;;7.56;79.74;100288.31;216404;1293;138438;-88
2023/03/15 11:19:58;;;;;;;5.10;1.40;;;;;;;8.02;80.66;100296.35;215753;1293;138832;-88
2023/03/15 11:24:58;;;;;;;11.50;2.30;;;;;;;8.63;80.70;100294.59;215717;1293;139874;-88
2023/03/15 11:30:00;;;;;;;8.40;2.30;;;;;;;9.05;80.27;100291.72;214892;1289;140391;-90
2023/03/15 11:35:16;;;;;;;11.40;2.00;;;;;;;9.48;79.53;100296.95;215578;1295;97807;-88
2023/03/15 11:40:21;;;;;;;5.60;1.90;;;;;;;9.70;77.08;100301.73;214969;1293;138916;-89
2023/03/15 11:45:43;;;;;;;8.50;2.00;;;;;;;9.82;77.16;100292.13;215316;1291;138212;-87
2023/03/15 11:50:43;;;;;;;9.10;2.40;;;;;;;9.88;73.18;100296.13;214708;1289;138691;-88
2023/03/15 11:55:49;;;;;;;10.70;2.20;;;;;;;9.68;73.49;100294.00;215248;1289;138321;-87
2023/03/15 12:00:54;;;;;;;4.70;1.80;;;;;;;9.70;72.59;100287.43;214778;1295;138158;-87
2023/03/15 12:06:00;;;;;;;6.60;1.90;;;;;;;9.71;72.74;100282.59;215731;1289;138348;-88
2023/03/15 12:11:08;;;;;;;5.50;1.30;;;;;;;9.74;70.28;100278.39;214964;1293;137872;-86
2023/03/15 12:16:10;;;;;;;5.70;2.40;;;;;;;9.73;69.63;100279.14;214622;1293;139230;-89
2023/03/15 12:21:30;;;;;;;7.50;1.90;;;;;;;9.63;68.46;100287.59;215710;1288;139011;-88
2023/03/15 12:26:36;;;;;;;7.00;2.50;;;;;;;9.42;67.95;100295.31;214717;1288;137873;-85
2023/03/15 12:31:49;;;;;;;6.80;1.90;;;;;;;9.13;67.78;100304.47;215251;1289;137707;-86
2023/03/15 12:36:54;;;;;;;8.80;1.70;;;;;;;8.78;68.23;100311.14;214691;1290;138131;-85
2023/03/15 12:41:55;;;;;;;6.60;1.50;;;;;;;8.52;69.27;100315.18;215296;1289;137603;-87
2023/03/15 12:47:00;;;;;;;8.80;1.80;;;;;;;8.39;70.18;100312.19;214721;1293;138458;-86
2023/03/15 12:52:09;;;;;;;7.90;2.10;;;;;;;8.34;71.63;100310.46;215176;1289;137989;-87
2023/03/15 12:57:14;;;;;;;5.20;1.80;;;;;;;8.32;72.45;100330.70;215229;1292;139120;-86
2023/03/15 13:02:29;;;;;;;3.50;1.10;;;;;;;8.23;71.48;100331.95;215057;1289;138359;-87
2023/03/15 13:08:07;;;;;;;5.10;2.00;;;;;;;8.26;72.11;100338.20;214719;1289;139103;-88
2023/03/15 13:13:26;;;;;;;7.40;1.70;;;;;;;8.38;74.91;100339.83;215122;1288;139015;-86
2023/03/15 13:18:33;;;;;;;6.90;1.40;;;;;;;8.43;75.10;100346.52;214680;1291;138757;-87
2023/03/15 13:23:33;;;;;;;4.30;1.60;;;;;;;8.44;76.50;100350.45;215784;1288;96629;-87
2023/03/15 13:28:38;;;;;;;7.00;1.90;;;;;;;8.38;76.32;100351.35;215026;1291;138331;-87
2023/03/15 13:33:39;;;;;;;5.40;1.70;;;;;;;8.07;75.13;100358.71;215289;1289;139442;-86
2023/03/15 13:38:41;;;;;;;8.50;2.60;;;;;;;7.85;76.57;100372.05;214933;1291;138408;-87
2023/03/15 13:43:42;;;;;;;8.90;3.00;;;;;;;7.71;75.23;100373.39;215299;1289;139896;-86
2023/03/15 13:48:46;;;;;;;7.50;2.40;;;;;;;7.57;75.43;100385.67;214826;1288;138955;-85
2023/03/15 13:53:48;;;;;;;7.50;2.90;;;;;;;7.32;75.75;100398.55;215645;1293;97888;-86
2023/03/15 13:58:50;;;;;;;11.20;4.10;;;;;;;7.03;76.74;100399.48;214726;1289;138608;-87
2023/03/15 14:04:00;;;;;;;11.60;2.90;;;;;;;6.95;78.66;100401.57;215889;1291;139084;-84
2023/03/15 14:09:10;;;;;;;10.00;2.40;;;;;;;6.94;78.78;100404.75;215350;1289;138998;-86
2023/03/15 14:14:25;;;;;;;6.50;2.50;;;;;;;6.80;78.36;100408.77;215404;1288;138482;-85
2023/03/15 14:19:30;;;;;;;7.60;2.70;;;;;;;6.59;78.15;100404.39;215107;1291;138496;-86
2023/03/15 14:24:42;;;;;;;10.90;2.50;;;;;;;6.51;78.64;100405.27;215341;1291;138461;-85
2023/03/15 14:29:49;;;;;;;5.10;1.50;;;;;;;6.46;79.26;100404.10;215004;1289;138830;-87
2023/03/15 14:35:15;;;;;;;7.40;1.90;;;;;;;6.39;78.91;100408.98;215244;1288;138918;-85
2023/03/15 14:40:21;;;;;;;5.60;1.70;;;;;;;6.28;79.03;100414.16;214797;1288;138594;-85
2023/03/15 14:45:22;;;;;;;6.00;1.80;;;;;;;6.19;78.99;100421.46;215504;1293;139544;-85
2023/03/15 14:50:29;;;;;;;6.20;1.60;;;;;;;6.08;78.38;100420.08;214859;1288;141578;-85
2023/03/15 14:55:33;;;;;;;7.40;1.90;;;;;;;5.95;78.52;100420.55;215697;1288;139377;-85
2023/03/15 15:00:34;;;;;;;11.30;2.30;;;;;;;5.81;77.67;100427.92;215170;1288;138837;-86
2023/03/15 15:05:35;;;;;;;11.80;2.30;;;;;;;5.64;78.01;100434.56;215501;1289;99251;-86
2023/03/15 15:10:36;;;;;;;10.60;3.20;;;;;;;5.50;78.74;100436.96;214503;1289;138406;-86
2023/03/15 15:15:36;;;;;;;13.20;3.80;;;;;;;5.37;79.33;100444.14;215190;1289;138304;-85
2023/03/15 15:20:37;;;;;;;10.60;2.60;;;;;;;5.25;79.33;100449.07;214591;1288;140036;-85
2023/03/15 15:25:37;;;;;;;10.60;2.20;;;;;;;5.20;79.79;100450.92;215222;1288;138508;-84
2023/03/15 15:30:39;;;;;;;9.50;2.30;;;;;;;5.10;79.65;100454.25;215797;1289;139126;-85
2023/03/15 15:35:40;;;;;;;10.30;3.40;;;;;;;5.01;79.70;100461.20;217120;1288;97677;-83
2023/03/15 15:40:40;;;;;;;11.30;3.30;;;;;;;4.95;79.48;100460.55;215890;1289;138610;-85
2023/03/15 15:45:41;;;;;;;8.50;2.60;;;;;;;4.89;79.84;100463.74;216400;1289;139944;-84
2023/03/15 15:50:41;;;;;;;7.30;2.40;;;;;;;4.83;79.01;100469.64;216992;1288;139254;-84
2023/03/15 15:55:43;;;;;;;10.70;3.20;;;;;;;4.76;79.58;100471.32;216716;1288;139196;-85
2023/03/15 16:00:43;;;;;;;13.80;3.20;;;;;;;4.72;78.96;100475.70;216141;1288;140661;-84
2023/03/15 16:05:43;;;;;;;10.40;2.80;;;;;;;4.68;79.68;100474.65;216641;1288;97642;-84
2023/03/15 16:10:44;;;;;;;10.90;5.20;;;;;;;4.70;80.52;100480.94;215830;1288;223265;-84
2023/03/15 16:15:44;;;;;;;14.20;5.30;;;;;;;4.69;79.78;100486.27;216300;1288;138356;-84
2023/03/15 16:20:45;;;;;;;16.90;7.40;;;;;;;4.67;79.62;100497.39;215972;1288;139294;-84
2023/03/15 16:25:48;;;;;;;16.80;5.20;;;;;;;4.61;80.02;100500.31;216663;1289;138524;-84
2023/03/15 16:30:49;;;;;;;16.50;5.90;;;;;;;4.56;80.05;100506.90;215994;1288;138504;-84
2023/03/15 16:35:52;;;;;;;16.50;5.10;;;;;;;4.49;80.18;100516.00;216540;1289;96735;-84
2023/03/15 16:40:53;;;;;;;16.30;6.90;;;;;;;4.42;80.33;100525.55;215931;1291;138691;-84
2023/03/15 16:45:54;;;;;;;11.90;4.30;;;;;;;4.32;80.46;100534.82;216343;1289;138829;-84
2023/03/15 16:50:54;;;;;;;10.60;3.40;;;;;;;4.20;80.21;100534.90;215778;1289;138936;-84
2023/03/15 16:55:56;;;;;;;12.00;4.20;;;;;;;4.04;80.89;100544.08;216467;1289;139573;-84
2023/03/15 17:00:56;;;;;;;9.60;3.20;;;;;;;3.92;81.13;100549.60;215961;1289;138705;-84
2023/03/15 17:05:57;;;;;;;12.80;4.00;;;;;;;3.78;81.96;100556.28;216475;1288;138468;-83
2023/03/15 17:10:57;;;;;;;13.40;4.40;;;;;;;3.65;82.86;100564.61;216364;1288;138841;-85
2023/03/15 17:15:58;;;;;;;14.00;6.20;;;;;;;3.48;83.42;100573.20;216011;1290;138958;-84
2023/03/15 17:20:59;;;;;;;24.20;13.50;;;;;;;3.28;83.98;100575.30;216343;1288;138948;-85
2023/03/15 17:25:59;;;;;;;31.50;18.70;;;;;;;3.13;84.69;100582.81;215907;1288;139061;-86
2023/03/15 17:31:00;;;;;;;24.00;11.80;;;;;;;2.95;85.02;100593.52;217030;1289;140191;-85
2023/03/15 17:36:03;;;;;;;22.50;9.40;;;;;;;2.75;85.65;100597.43;216606;1288;139445;-84
2023/03/15 17:41:16;;;;;;;16.10;7.80;;;;;;;2.61;86.50;100598.14;216619;1288;104553;-85
2023/03/15 17:46:17;;;;;;;20.20;8.20;;;;;;;2.43;86.73;100604.20;216118;1288;138888;-85
2023/03/15 17:51:21;;;;;;;21.30;8.50;;;;;;;2.25;87.13;100609.95;216461;1291;138332;-85
2023/03/15 17:56:21;;;;;;;26.40;10.70;;;;;;;2.14;87.80;100613.94;215867;1288;139123;-86
2023/03/15 18:01:42;;;;;;;42.30;16.10;;;;;;;2.00;88.46;100617.93;216307;1289;138785;-83
2023/03/15 18:06:45;;;;;;;32.40;13.50;;;;;;;1.86;88.85;100619.23;216019;1289;139340;-84
2023/03/15 18:11:46;;;;;;;44.40;17.30;;;;;;;1.72;89.65;100621.39;216382;1288;96652;-84
2023/03/15 18:16:47;;;;;;;69.60;23.80;;;;;;;1.63;89.98;100627.35;215809;1288;139080;-85
2023/03/15 18:22:24;;;;;;;;;;;;;;;;;;;;;
2023/03/15 18:27:24;;;;;;;68.60;25.40;;;;;;;1.29;90.20;100629.84;216035;1289;138798;-86
2023/03/15 18:32:44;;;;;;;50.80;19.70;;;;;;;1.14;90.24;100634.36;216374;1288;139767;-85
2023/03/15 18:37:46;;;;;;;42.20;16.60;;;;;;;0.96;91.17;100653.28;214926;1291;139306;-86
2023/03/15 18:42:46;;;;;;;58.00;21.70;;;;;;;0.90;92.19;100667.02;215692;1288;139117;-86
2023/03/15 18:47:48;;;;;;;97.30;33.00;;;;;;;0.92;92.24;100670.39;214851;1289;139456;-86
2023/03/15 18:52:48;;;;;;;97.20;33.60;;;;;;;0.91;92.42;100668.73;215448;1289;138404;-84
2023/03/15 18:57:50;;;;;;;112.20;39.60;;;;;;;0.88;92.71;100669.40;214765;1288;138941;-84
2023/03/15 19:02:56;;;;;;;115.00;39.70;;;;;;;0.85;93.24;100679.45;215383;1288;138872;-84
2023/03/15 19:07:57;;;;;;;145.30;51.70;;;;;;;0.78;93.25;100684.04;214832;1289;139660;-85
2023/03/15 19:12:57;;;;;;;122.60;46.00;;;;;;;0.72;93.29;100690.91;215466;1290;139105;-85
2023/03/15 19:17:58;;;;;;;107.50;41.20;;;;;;;0.65;93.27;100689.77;214665;1289;140810;-84
2023/03/15 19:22:59;;;;;;;50.10;23.50;;;;;;;0.59;93.35;100694.99;215332;1289;97919;-83
2023/03/15 19:27:59;;;;;;;66.30;30.00;;;;;;;0.49;93.84;100696.84;214748;1288;139721;-85
2023/03/15 19:33:00;;;;;;;66.60;29.90;;;;;;;0.38;94.06;100703.58;215495;1288;140920;-84
2023/03/15 19:38:03;;;;;;;55.80;24.10;;;;;;;0.23;94.48;100708.98;214955;1288;139117;-84
2023/03/15 19:43:03;;;;;;;69.40;35.50;;;;;;;0.15;94.88;100712.24;215427;1288;141526;-83
2023/03/15 19:48:04;;;;;;;67.00;33.50;;;;;;;0.04;95.06;100712.30;214653;1288;139500;-84
2023/03/15 19:53:05;;;;;;;64.20;32.10;;;;;;;-0.01;95.57;100717.31;215441;1289;99262;-84
2023/03/15 19:58:05;;;;;;;62.10;28.40;;;;;;;-0.07;95.59;100728.63;214813;1289;138640;-84
2023/03/15 20:03:06;;;;;;;70.10;29.80;;;;;;;-0.16;95.88;100732.22;215231;1289;140590;-84
2023/03/15 20:08:08;;;;;;;76.60;30.60;;;;;;;-0.25;96.48;100735.36;214553;1288;139581;-84
2023/03/15 20:13:10;;;;;;;67.60;28.90;;;;;;;-0.31;96.68;100737.61;215114;1289;139806;-84
2023/03/15 20:18:13;;;;;;;69.80;30.10;;;;;;;-0.37;96.64;100748.54;214878;1289;140645;-83
2023/03/15 20:23:14;;;;;;;68.30;29.30;;;;;;;-0.41;97.13;100750.52;215381;1289;97896;-82
2023/03/15 20:28:16;;;;;;;71.10;30.20;;;;;;;-0.49;97.15;100758.81;215317;1289;139831;-83
2023/03/15 20:33:16;;;;;;;64.80;28.10;;;;;;;-0.58;96.95;100759.98;215097;1293;140128;-83
2023/03/15 20:38:17;;;;;;;76.30;32.70;;;;;;;-0.65;97.39;100762.10;214519;1289;139749;-83
2023/03/15 20:43:17;;;;;;;71.10;32.30;;;;;;;-0.71;97.91;100760.59;215089;1288;139589;-83
2023/03/15 20:48:20;;;;;;;78.00;36.50;;;;;;;-0.74;98.44;100764.27;214628;1289;139874;-83
2023/03/15 20:53:21;;;;;;;66.30;31.20;;;;;;;-0.78;98.70;100762.26;215020;1289;97873;-83
2023/03/15 20:58:22;;;;;;;89.60;37.70;;;;;;;-0.84;98.51;100765.82;214425;1288;139673;-83
2023/03/15 21:03:22;;;;;;;146.20;53.90;;;;;;;-0.89;98.81;100776.98;215044;1288;138997;-83
2023/03/15 21:08:23;;;;;;;168.90;58.10;;;;;;;-0.96;98.90;100781.86;214423;1291;139486;-83
2023/03/15 21:13:23;;;;;;;82.80;36.10;;;;;;;-1.03;98.93;100781.98;215262;1289;140113;-84
2023/03/15 21:18:24;;;;;;;79.50;33.00;;;;;;;-1.07;99.35;100793.38;214692;1288;139636;-83
2023/03/15 21:23:30;;;;;;;90.40;35.00;;;;;;;-1.11;99.69;100794.89;215141;1289;97957;-83
2023/03/15 21:28:31;;;;;;;71.40;31.70;;;;;;;-1.15;99.84;100795.77;214554;1289;139052;-83
2023/03/15 21:33:32;;;;;;;79.10;35.80;;;;;;;-1.21;99.79;100798.10;215152;1289;138888;-82
2023/03/15 21:38:33;;;;;;;102.70;39.40;;;;;;;-1.23;99.90;100809.70;214510;1289;140164;-82
2023/03/15 21:43:35;;;;;;;102.60;42.30;;;;;;;-1.24;99.94;100802.05;215138;1289;139672;-83
2023/03/15 21:48:38;;;;;;;116.80;44.20;;;;;;;-1.27;100.00;100808.71;214435;1288;139440;-83
2023/03/15 21:53:38;;;;;;;111.30;45.30;;;;;;;-1.27;99.97;100815.36;215246;1288;99221;-83
2023/03/15 21:58:40;;;;;;;103.20;43.80;;;;;;;-1.29;100.00;100815.38;214329;1289;139231;-82
2023/03/15 22:03:52;;;;;;;90.30;39.40;;;;;;;-1.31;100.00;100819.62;215334;1288;139414;-82
2023/03/15 22:08:52;;;;;;;90.80;39.10;;;;;;;-1.34;100.00;100824.85;214989;1292;139805;-82
2023/03/15 22:13:52;;;;;;;106.60;43.60;;;;;;;-1.34;100.00;100831.91;215967;1288;139174;-82
2023/03/15 22:18:54;;;;;;;104.50;38.10;;;;;;;-1.35;100.00;100829.81;215274;1289;139819;-82
2023/03/15 22:23:55;;;;;;;92.30;37.80;;;;;;;-1.38;100.00;100833.00;215123;1294;139910;-81
2023/03/15 22:28:56;;;;;;;76.80;30.60;;;;;;;-1.39;100.00;100836.35;214417;1289;139701;-82
2023/03/15 22:33:57;;;;;;;61.70;23.80;;;;;;;-1.42;100.00;100835.37;214786;1289;139024;-82
2023/03/15 22:38:58;;;;;;;46.10;19.50;;;;;;;-1.43;100.00;100837.38;214343;1289;139788;-81
2023/03/15 22:43:59;;;;;;;41.20;16.20;;;;;;;-1.44;100.00;100833.77;214909;1288;139322;-80
2023/03/15 22:48:59;;;;;;;45.10;18.00;;;;;;;-1.45;100.00;100833.34;213387;1291;141840;-82
2023/03/15 22:54:00;;;;;;;45.70;17.80;;;;;;;-1.46;100.00;100831.36;214170;1288;140790;-82
2023/03/15 22:59:01;;;;;;;46.90;17.00;;;;;;;-1.47;100.00;100832.24;213533;1288;139663;-82